createdAt,value
2018-03-18T00:01:46.564Z,-2.61
2018-03-18T00:04:16.289Z,-2.63
2018-03-18T00:06:45.342Z,-2.64
2018-03-18T00:09:14.473Z,-2.62
2018-03-18T00:11:43.505Z,-2.62
2018-03-18T00:14:13.026Z,-2.62
2018-03-18T00:16:42.164Z,-2.61
2018-03-18T00:19:11.484Z,-2.62
2018-03-18T00:21:42.548Z,-2.62
2018-03-18T00:24:11.688Z,-2.62
2018-03-18T00:26:42.838Z,-2.62
2018-03-18T00:29:11.958Z,-2.64
2018-03-18T00:31:40.984Z,-2.63
2018-03-18T00:34:10.059Z,-2.63
2018-03-18T00:36:39.120Z,-2.61
2018-03-18T00:39:08.243Z,-2.61
2018-03-18T00:41:38.380Z,-2.63
2018-03-18T00:44:07.421Z,-2.61
2018-03-18T00:46:36.440Z,-2.60
2018-03-18T00:49:05.658Z,-2.61
2018-03-18T00:51:46.663Z,-2.58
2018-03-18T00:54:15.755Z,-2.58
2018-03-18T00:56:44.829Z,-2.57
2018-03-18T00:59:13.860Z,-2.60
2018-03-18T01:01:42.904Z,-2.58
2018-03-18T01:04:12.224Z,-2.58
2018-03-18T01:06:41.938Z,-2.58
2018-03-18T01:09:10.974Z,-2.60
2018-03-18T01:11:39.993Z,-2.61
2018-03-18T01:14:10.208Z,-2.62
2018-03-18T01:16:40.229Z,-2.63
2018-03-18T01:19:10.667Z,-2.58
2018-03-18T01:21:39.710Z,-2.57
2018-03-18T01:24:10.050Z,-2.59
2018-03-18T01:26:39.077Z,-2.60
2018-03-18T01:29:08.507Z,-2.63
2018-03-18T01:31:38.628Z,-2.60
2018-03-18T01:34:09.091Z,-2.58
2018-03-18T01:36:38.907Z,-2.59
2018-03-18T01:39:09.024Z,-2.57
2018-03-18T01:41:38.965Z,-2.58
2018-03-18T01:44:08.264Z,-2.58
2018-03-18T01:46:37.487Z,-2.58
2018-03-18T01:49:06.746Z,-2.59
2018-03-18T01:51:36.530Z,-2.59
2018-03-18T01:54:05.552Z,-2.61
2018-03-18T01:56:34.598Z,-2.61
2018-03-18T01:59:03.731Z,-2.60
2018-03-18T02:01:33.222Z,-2.61
2018-03-18T02:04:02.420Z,-2.62
2018-03-18T02:06:31.838Z,-2.64
2018-03-18T02:09:01.236Z,-2.69
2018-03-18T02:11:30.271Z,-2.71
2018-03-18T02:13:59.458Z,-2.73
2018-03-18T02:16:29.129Z,-2.75
2018-03-18T02:18:58.156Z,-2.77
2018-03-18T02:21:27.616Z,-2.77
2018-03-18T02:23:58.158Z,-2.77
2018-03-18T02:26:27.523Z,-2.75
2018-03-18T02:28:58.081Z,-2.74
2018-03-18T02:31:27.513Z,-2.76
2018-03-18T02:33:56.795Z,-2.75
2018-03-18T02:36:26.826Z,-2.76
2018-03-18T02:38:56.346Z,-2.76
2018-03-18T02:41:25.635Z,-2.79
2018-03-18T02:43:54.928Z,-2.80
2018-03-18T02:46:24.556Z,-2.81
2018-03-18T02:48:54.673Z,-2.82
2018-03-18T02:51:23.755Z,-2.82
2018-03-18T02:53:52.772Z,-2.85
2018-03-18T02:56:22.301Z,-2.89
2018-03-18T02:58:51.494Z,-2.91
2018-03-18T03:01:21.423Z,-2.91
2018-03-18T03:03:51.608Z,-2.89
2018-03-18T03:06:21.220Z,-2.91
2018-03-18T03:08:50.659Z,-2.90
2018-03-18T03:11:20.391Z,-2.94
2018-03-18T03:13:50.079Z,-2.97
2018-03-18T03:16:20.120Z,-2.96
2018-03-18T03:18:49.380Z,-3.01
2018-03-18T03:21:18.448Z,-3.02
2018-03-18T03:23:47.536Z,-3.05
2018-03-18T03:26:18.335Z,-3.05
2018-03-18T03:28:47.970Z,-3.06
2018-03-18T03:31:17.121Z,-3.06
2018-03-18T03:33:47.205Z,-3.08
2018-03-18T03:36:17.404Z,-3.09
2018-03-18T03:38:47.098Z,-3.09
2018-03-18T03:41:16.356Z,-3.11
2018-03-18T03:43:46.664Z,-3.11
2018-03-18T03:46:15.952Z,-3.11
2018-03-18T03:48:46.233Z,-3.12
2018-03-18T03:51:15.527Z,-3.12
2018-03-18T03:53:45.237Z,-3.12
2018-03-18T03:56:14.891Z,-3.14
2018-03-18T03:58:44.794Z,-3.20
2018-03-18T04:01:13.913Z,-3.23
2018-03-18T04:03:45.356Z,-3.25
2018-03-18T04:06:14.713Z,-3.24
2018-03-18T04:08:44.502Z,-3.26
2018-03-18T04:11:14.241Z,-3.29
2018-03-18T04:13:43.420Z,-3.31
2018-03-18T04:16:13.143Z,-3.31
2018-03-18T04:18:43.358Z,-3.32
2018-03-18T04:21:12.389Z,-3.31
2018-03-18T04:23:43.080Z,-3.33
2018-03-18T04:26:13.439Z,-3.36
2018-03-18T04:28:42.723Z,-3.36
2018-03-18T04:31:12.100Z,-3.40
2018-03-18T04:33:41.162Z,-3.39
2018-03-18T04:36:10.603Z,-3.36
2018-03-18T04:38:39.850Z,-3.39
2018-03-18T04:41:08.877Z,-3.40
2018-03-18T04:43:39.476Z,-3.42
2018-03-18T04:46:08.497Z,-3.45
2018-03-18T04:48:37.957Z,-3.49
2018-03-18T04:51:07.844Z,-3.48
2018-03-18T04:53:37.518Z,-3.51
2018-03-18T04:56:06.856Z,-3.53
2018-03-18T04:58:37.078Z,-3.53
2018-03-18T05:01:06.814Z,-3.51
2018-03-18T05:03:35.884Z,-3.52
2018-03-18T05:06:05.025Z,-3.53
2018-03-18T05:08:34.565Z,-3.49
2018-03-18T05:11:05.455Z,-3.50
2018-03-18T05:13:35.722Z,-3.49
2018-03-18T05:16:05.813Z,-3.49
2018-03-18T05:18:36.078Z,-3.49
2018-03-18T05:21:05.100Z,-3.47
2018-03-18T05:23:34.390Z,-3.44
2018-03-18T05:26:03.741Z,-3.42
2018-03-18T05:28:33.947Z,-3.41
2018-03-18T05:31:02.973Z,-3.38
2018-03-18T05:33:32.121Z,-3.34
2018-03-18T05:36:01.153Z,-3.30
2018-03-18T05:38:30.391Z,-3.25
2018-03-18T05:41:00.554Z,-3.18
2018-03-18T05:43:31.002Z,-3.12
2018-03-18T05:46:00.521Z,-3.06
2018-03-18T05:48:29.556Z,-2.99
2018-03-18T05:50:59.013Z,-2.93
2018-03-18T05:53:28.046Z,-2.88
2018-03-18T05:55:57.513Z,-2.83
2018-03-18T05:58:26.928Z,-2.75
2018-03-18T06:00:55.953Z,-2.67
2018-03-18T06:03:26.271Z,-2.61
2018-03-18T06:05:55.559Z,-2.53
2018-03-18T06:08:24.616Z,-2.53
2018-03-18T06:10:55.424Z,-2.46
2018-03-18T06:13:24.788Z,-2.40
2018-03-18T06:15:55.652Z,-2.33
2018-03-18T06:18:24.693Z,-2.35
2018-03-18T06:20:55.000Z,-2.31
2018-03-18T06:23:24.309Z,-2.29
2018-03-18T06:25:55.972Z,-2.22
2018-03-18T06:28:26.166Z,-2.17
2018-03-18T06:30:56.027Z,-2.12
2018-03-18T06:33:25.776Z,-2.09
2018-03-18T06:35:56.278Z,-2.08
2018-03-18T06:38:25.416Z,-2.05
2018-03-18T06:40:55.218Z,-1.99
2018-03-18T06:43:24.694Z,-1.95
2018-03-18T06:45:54.986Z,-1.89
2018-03-18T06:48:24.355Z,-1.83
2018-03-18T06:50:53.395Z,-1.86
2018-03-18T06:53:22.499Z,-1.88
2018-03-18T06:55:51.608Z,-1.81
2018-03-18T06:58:20.692Z,-1.72
2018-03-18T07:00:50.025Z,-1.65
2018-03-18T07:03:19.053Z,-1.65
2018-03-18T07:05:48.105Z,-1.60
2018-03-18T07:08:17.185Z,-1.55
2018-03-18T07:10:46.618Z,-1.57
2018-03-18T07:13:15.910Z,-1.57
2018-03-18T07:15:45.059Z,-1.49
2018-03-18T07:18:14.792Z,-1.34
2018-03-18T07:20:44.092Z,-1.26
2018-03-18T07:23:13.322Z,-1.27
2018-03-18T07:25:45.685Z,-1.30
2018-03-18T07:28:14.985Z,-1.29
2018-03-18T07:30:44.035Z,-1.23
2018-03-18T07:33:13.322Z,-1.17
2018-03-18T07:35:42.407Z,-1.20
2018-03-18T07:38:12.756Z,-1.28
2018-03-18T07:40:42.333Z,-1.28
2018-03-18T07:43:11.658Z,-1.28
2018-03-18T07:45:40.710Z,-1.35
2018-03-18T07:48:09.792Z,-1.33
2018-03-18T07:50:39.594Z,-1.29
2018-03-18T07:53:09.601Z,-1.29
2018-03-18T07:55:38.710Z,-1.30
2018-03-18T07:58:08.381Z,-1.21
2018-03-18T08:00:37.438Z,-1.10
2018-03-18T08:03:06.888Z,-1.07
2018-03-18T08:05:36.497Z,-1.07
2018-03-18T08:08:05.589Z,-1.00
2018-03-18T08:10:34.648Z,-0.93
2018-03-18T08:13:04.540Z,-0.98
2018-03-18T08:15:33.583Z,-1.00
2018-03-18T08:18:03.033Z,-1.01
2018-03-18T08:20:32.408Z,-1.03
2018-03-18T08:23:01.642Z,-1.03
2018-03-18T08:25:31.518Z,-0.99
2018-03-18T08:28:00.957Z,-0.96
2018-03-18T08:30:30.312Z,-0.93
2018-03-18T08:32:59.390Z,-0.87
2018-03-18T08:35:28.795Z,-0.88
2018-03-18T08:37:58.107Z,-0.84
2018-03-18T08:40:27.197Z,-0.91
2018-03-18T08:42:57.116Z,-1.02
2018-03-18T08:45:26.164Z,-1.05
2018-03-18T08:47:55.256Z,-1.01
2018-03-18T08:50:24.306Z,-0.99
2018-03-18T08:52:53.397Z,-0.95
2018-03-18T08:55:22.745Z,-0.86
2018-03-18T08:57:52.631Z,-0.79
2018-03-18T09:00:22.064Z,-0.70
2018-03-18T09:02:51.160Z,-0.65
2018-03-18T09:05:21.225Z,-0.59
2018-03-18T09:07:51.010Z,-0.58
2018-03-18T09:10:20.800Z,-0.69
2018-03-18T09:12:50.206Z,-0.77
2018-03-18T09:15:19.240Z,-0.75
2018-03-18T09:17:48.855Z,-0.66
2018-03-18T09:20:18.282Z,-0.65
2018-03-18T09:22:47.397Z,-0.59
2018-03-18T09:25:17.119Z,-0.67
2018-03-18T09:27:46.271Z,-0.74
2018-03-18T09:30:15.951Z,-0.68
2018-03-18T09:32:45.082Z,-0.61
2018-03-18T09:35:15.080Z,-0.54
2018-03-18T09:37:44.190Z,-0.51
2018-03-18T09:40:14.467Z,-0.44
2018-03-18T09:42:44.444Z,-0.48
2018-03-18T09:45:13.489Z,-0.52
2018-03-18T09:47:42.628Z,-0.45
2018-03-18T09:50:11.989Z,-0.34
2018-03-18T09:52:41.031Z,-0.30
2018-03-18T09:55:10.176Z,-0.31
2018-03-18T09:57:40.612Z,-0.49
2018-03-18T10:00:09.684Z,-0.40
2018-03-18T10:02:39.961Z,-0.36
2018-03-18T10:05:09.079Z,-0.30
2018-03-18T10:07:39.552Z,-0.29
2018-03-18T10:10:10.680Z,-0.33
2018-03-18T10:12:40.615Z,-0.39
2018-03-18T10:15:10.702Z,-0.27
2018-03-18T10:17:39.819Z,-0.21
2018-03-18T10:20:09.224Z,-0.21
2018-03-18T10:22:38.692Z,-0.18
2018-03-18T10:25:08.383Z,-0.07
2018-03-18T10:27:38.371Z,0.07
2018-03-18T10:30:09.571Z,0.19
2018-03-18T10:32:39.570Z,0.15
2018-03-18T10:35:08.787Z,0.07
2018-03-18T10:37:37.872Z,0.05
2018-03-18T10:40:06.912Z,0.08
2018-03-18T10:42:35.945Z,0.08
2018-03-18T10:45:04.989Z,0.16
2018-03-18T10:47:34.016Z,0.27
2018-03-18T10:50:03.626Z,0.30
2018-03-18T10:52:33.346Z,0.42
2018-03-18T10:55:03.045Z,0.49
2018-03-18T10:57:32.137Z,0.50
2018-03-18T11:00:02.246Z,0.52
2018-03-18T11:02:32.630Z,0.45
2018-03-18T11:05:02.194Z,0.54
2018-03-18T11:07:31.316Z,0.74
2018-03-18T11:10:01.678Z,0.82
2018-03-18T11:12:32.109Z,0.86
2018-03-18T11:15:02.084Z,0.98
2018-03-18T11:17:32.182Z,1.07
2018-03-18T11:20:01.229Z,1.11
2018-03-18T11:22:31.192Z,1.10
2018-03-18T11:25:01.489Z,1.19
2018-03-18T11:27:30.730Z,1.28
2018-03-18T11:30:00.461Z,1.35
2018-03-18T11:32:30.114Z,1.24
2018-03-18T11:34:59.431Z,1.18
2018-03-18T11:37:29.469Z,1.29
2018-03-18T11:39:58.650Z,1.50
2018-03-18T11:42:27.825Z,1.52
2018-03-18T11:44:57.290Z,1.38
2018-03-18T11:47:26.603Z,1.38
2018-03-18T11:49:56.078Z,1.40
2018-03-18T11:52:28.578Z,1.61
2018-03-18T11:54:58.612Z,1.78
2018-03-18T11:57:28.016Z,1.68
2018-03-18T11:59:57.428Z,1.67
2018-03-18T12:02:27.195Z,1.76
2018-03-18T12:04:56.265Z,1.88
2018-03-18T12:07:25.664Z,2.02
2018-03-18T12:09:54.697Z,2.11
2018-03-18T12:12:24.040Z,2.14
2018-03-18T12:14:53.078Z,2.01
2018-03-18T12:17:22.171Z,1.96
2018-03-18T12:19:51.256Z,2.07
2018-03-18T12:22:20.310Z,2.34
2018-03-18T12:24:49.349Z,2.56
2018-03-18T12:27:19.167Z,2.67
2018-03-18T12:29:48.224Z,2.72
2018-03-18T12:32:17.255Z,2.83
2018-03-18T12:34:46.721Z,3.18
2018-03-18T12:37:15.768Z,3.28
2018-03-18T12:39:57.521Z,3.29
2018-03-18T12:42:38.705Z,3.40
2018-03-18T12:45:07.756Z,3.51
2018-03-18T12:47:37.083Z,3.53
2018-03-18T12:50:06.162Z,3.72
2018-03-18T12:52:35.500Z,4.05
2018-03-18T12:55:04.540Z,3.83
2018-03-18T12:57:34.342Z,4.02
2018-03-18T13:00:04.415Z,4.54
2018-03-18T13:02:33.831Z,4.65
2018-03-18T13:05:03.079Z,4.51
2018-03-18T13:07:32.121Z,4.66
2018-03-18T13:10:01.660Z,4.88
2018-03-18T13:12:30.789Z,5.14
2018-03-18T13:14:59.830Z,5.19
2018-03-18T13:17:30.117Z,5.46
2018-03-18T13:20:00.597Z,5.89
2018-03-18T13:22:31.192Z,6.00
2018-03-18T13:25:00.278Z,5.86
2018-03-18T13:27:29.312Z,6.33
2018-03-18T13:29:58.397Z,6.51
2018-03-18T13:32:27.442Z,6.35
2018-03-18T13:34:57.048Z,6.53
2018-03-18T13:40:00.566Z,6.62
2018-03-18T13:42:29.617Z,6.46
2018-03-18T13:44:58.690Z,6.53
2018-03-18T13:47:28.159Z,6.42
2018-03-18T13:49:57.207Z,6.55
2018-03-18T13:52:26.289Z,6.70
2018-03-18T13:54:56.525Z,7.00
2018-03-18T13:57:25.577Z,7.17
2018-03-18T13:59:55.011Z,7.00
2018-03-18T14:02:25.282Z,7.25
2018-03-18T14:04:55.705Z,7.08
2018-03-18T14:07:25.725Z,6.72
2018-03-18T14:09:54.898Z,6.58
2018-03-18T14:12:24.002Z,6.53
2018-03-18T14:14:54.851Z,6.60
2018-03-18T14:17:24.201Z,6.62
2018-03-18T14:19:53.246Z,6.68
2018-03-18T14:22:22.275Z,6.61
2018-03-18T14:24:52.239Z,6.81
2018-03-18T14:27:23.798Z,6.88
2018-03-18T14:29:53.807Z,6.95
2018-03-18T14:32:23.158Z,6.90
2018-03-18T14:34:52.663Z,7.15
2018-03-18T14:37:22.814Z,7.07
2018-03-18T14:39:51.893Z,7.23
2018-03-18T14:42:20.948Z,6.93
2018-03-18T14:44:49.996Z,6.76
2018-03-18T14:47:19.045Z,6.44
2018-03-18T14:49:48.542Z,6.33
2018-03-18T14:52:17.606Z,6.56
2018-03-18T14:54:46.658Z,6.81
2018-03-18T14:57:15.715Z,6.71
2018-03-18T14:59:44.749Z,6.57
2018-03-18T15:02:13.777Z,6.39
2018-03-18T15:04:42.822Z,6.40
2018-03-18T15:07:11.870Z,6.43
2018-03-18T15:09:41.266Z,6.33
2018-03-18T15:12:10.365Z,6.46
2018-03-18T15:14:40.579Z,6.62
2018-03-18T15:17:09.633Z,6.83
2018-03-18T15:19:38.970Z,7.15
2018-03-18T15:22:08.044Z,6.70
2018-03-18T15:24:37.118Z,6.32
2018-03-18T15:27:06.523Z,5.51
2018-03-18T15:29:35.558Z,4.70
2018-03-18T15:32:05.028Z,4.02
2018-03-18T15:34:34.117Z,3.40
2018-03-18T15:37:03.144Z,2.83
2018-03-18T15:39:32.213Z,2.33
2018-03-18T15:42:01.308Z,2.00
2018-03-18T15:44:30.333Z,1.81
2018-03-18T15:47:00.151Z,1.58
2018-03-18T15:49:29.374Z,1.42
2018-03-18T15:51:58.418Z,1.25
2018-03-18T15:54:29.258Z,1.10
2018-03-18T15:56:58.289Z,0.96
2018-03-18T15:59:27.900Z,0.85
2018-03-18T16:01:59.456Z,0.75
2018-03-18T16:04:28.514Z,0.71
2018-03-18T16:06:57.715Z,0.69
2018-03-18T16:09:26.881Z,0.67
2018-03-18T16:11:55.942Z,0.61
2018-03-18T16:14:24.965Z,0.54
2018-03-18T16:16:54.865Z,0.48
2018-03-18T16:19:23.919Z,0.40
2018-03-18T16:21:52.989Z,0.35
2018-03-18T16:24:22.013Z,0.33
2018-03-18T16:26:51.671Z,0.33
2018-03-18T16:29:32.478Z,0.29
2018-03-18T16:32:02.366Z,0.20
2018-03-18T16:34:31.508Z,0.11
2018-03-18T16:37:00.548Z,0.08
2018-03-18T16:39:30.251Z,0.02
2018-03-18T16:41:59.292Z,0.03
2018-03-18T16:44:28.332Z,-0.03
2018-03-18T16:46:57.484Z,-0.04
2018-03-18T16:49:26.517Z,-0.09
2018-03-18T16:51:55.761Z,-0.11
2018-03-18T16:54:24.894Z,-0.12
2018-03-18T16:56:53.931Z,-0.17
2018-03-18T16:59:22.981Z,-0.23
2018-03-18T17:01:52.037Z,-0.27
2018-03-18T17:04:21.179Z,-0.30
2018-03-18T17:06:50.498Z,-0.35
2018-03-18T17:09:19.894Z,-0.44
2018-03-18T17:11:48.970Z,-0.51
2018-03-18T17:14:18.002Z,-0.57
2018-03-18T17:16:47.114Z,-0.62
2018-03-18T17:19:16.463Z,-0.63
2018-03-18T17:21:45.863Z,-0.70
2018-03-18T17:24:14.902Z,-0.77
2018-03-18T17:26:44.803Z,-0.79
2018-03-18T17:29:14.207Z,-0.81
2018-03-18T17:31:43.245Z,-0.83
2018-03-18T17:34:12.277Z,-0.86
2018-03-18T17:36:41.953Z,-0.80
2018-03-18T17:39:11.932Z,-0.77
2018-03-18T17:41:41.430Z,-0.76
2018-03-18T17:44:10.610Z,-0.76
2018-03-18T17:46:51.732Z,-0.77
2018-03-18T17:49:32.849Z,-0.83
2018-03-18T17:52:13.675Z,-0.85
2018-03-18T17:54:54.504Z,-0.87
2018-03-18T17:57:24.420Z,-0.84
2018-03-18T17:59:53.529Z,-0.81
2018-03-18T18:02:22.982Z,-0.81
2018-03-18T18:04:52.056Z,-0.82
2018-03-18T18:07:21.115Z,-0.83
2018-03-18T18:09:50.529Z,-0.82
2018-03-18T18:12:19.573Z,-0.81
2018-03-18T18:14:48.789Z,-0.79
2018-03-18T18:17:18.028Z,-0.79
2018-03-18T18:19:48.122Z,-0.80
2018-03-18T18:22:17.537Z,-0.82
2018-03-18T18:24:46.746Z,-0.85
2018-03-18T18:27:15.790Z,-0.86
2018-03-18T18:29:45.237Z,-0.88
2018-03-18T18:32:14.795Z,-0.88
2018-03-18T18:34:43.902Z,-0.89
2018-03-18T18:37:13.946Z,-0.96
2018-03-18T18:39:44.344Z,-1.00
2018-03-18T18:42:15.852Z,-1.03
2018-03-18T18:44:45.850Z,-1.07
2018-03-18T18:47:15.848Z,-1.09
2018-03-18T18:49:45.535Z,-1.13
2018-03-18T18:52:14.871Z,-1.15
2018-03-18T18:54:43.933Z,-1.14
2018-03-18T18:57:13.891Z,-1.16
2018-03-18T18:59:42.974Z,-1.20
2018-03-18T19:02:12.055Z,-1.24
2018-03-18T19:04:41.136Z,-1.28
2018-03-18T19:07:10.202Z,-1.32
2018-03-18T19:09:39.578Z,-1.35
2018-03-18T19:12:08.645Z,-1.38
2018-03-18T19:14:37.705Z,-1.40
2018-03-18T19:17:07.174Z,-1.42
2018-03-18T19:19:36.251Z,-1.43
2018-03-18T19:22:05.802Z,-1.45
2018-03-18T19:24:34.855Z,-1.48
2018-03-18T19:27:04.317Z,-1.51
2018-03-18T19:29:33.429Z,-1.52
2018-03-18T19:32:02.506Z,-1.50
2018-03-18T19:34:31.570Z,-1.49
2018-03-18T19:37:00.645Z,-1.51
2018-03-18T19:39:31.129Z,-1.53
2018-03-18T19:42:00.197Z,-1.55
2018-03-18T19:44:29.266Z,-1.59
2018-03-18T19:46:58.466Z,-1.67
2018-03-18T19:49:27.866Z,-1.69
2018-03-18T19:51:56.987Z,-1.71
2018-03-18T19:54:26.014Z,-1.74
2018-03-18T19:56:56.537Z,-1.79
2018-03-18T19:59:25.604Z,-1.81
2018-03-18T20:01:54.661Z,-1.88
2018-03-18T20:04:24.242Z,-1.89
2018-03-18T20:06:53.307Z,-1.89
2018-03-18T20:09:22.386Z,-1.87
2018-03-18T20:11:51.724Z,-1.86
2018-03-18T20:14:20.803Z,-1.88
2018-03-18T20:16:49.951Z,-1.89
2018-03-18T20:19:19.495Z,-1.89
2018-03-18T20:21:48.646Z,-1.94
2018-03-18T20:24:21.220Z,-1.95
2018-03-18T20:26:52.130Z,-1.97
2018-03-18T20:29:21.191Z,-2.02
2018-03-18T20:31:50.305Z,-2.04
2018-03-18T20:34:19.771Z,-2.10
2018-03-18T20:36:48.824Z,-2.12
2018-03-18T20:39:17.876Z,-2.11
2018-03-18T20:41:46.927Z,-2.12
2018-03-18T20:44:16.199Z,-2.11
2018-03-18T20:46:45.422Z,-2.11
2018-03-18T20:49:14.482Z,-2.11
2018-03-18T20:51:43.532Z,-2.14
2018-03-18T20:54:12.637Z,-2.17
2018-03-18T20:56:41.829Z,-2.23
2018-03-18T20:59:10.885Z,-2.26
2018-03-18T21:01:40.019Z,-2.28
2018-03-18T21:04:09.115Z,-2.33
2018-03-18T21:06:38.247Z,-2.38
2018-03-18T21:09:07.291Z,-2.38
2018-03-18T21:11:36.368Z,-2.36
2018-03-18T21:14:05.425Z,-2.36
2018-03-18T21:16:34.508Z,-2.38
2018-03-18T21:19:04.291Z,-2.45
2018-03-18T21:21:36.224Z,-2.47
2018-03-18T21:24:05.270Z,-2.51
2018-03-18T21:26:34.347Z,-2.53
2018-03-18T21:29:03.395Z,-2.55
2018-03-18T21:31:32.667Z,-2.55
2018-03-18T21:34:01.769Z,-2.58
2018-03-18T21:36:30.848Z,-2.60
2018-03-18T21:39:00.263Z,-2.61
2018-03-18T21:41:29.323Z,-2.61
2018-03-18T21:43:58.424Z,-2.63
2018-03-18T21:46:27.800Z,-2.67
2018-03-18T21:48:56.866Z,-2.70
2018-03-18T21:51:26.337Z,-2.73
2018-03-18T21:53:55.429Z,-2.74
2018-03-18T21:56:24.571Z,-2.77
2018-03-18T21:58:53.638Z,-2.76
2018-03-18T22:01:22.720Z,-2.76
2018-03-18T22:03:51.769Z,-2.75
2018-03-18T22:06:20.820Z,-2.74
2018-03-18T22:08:49.874Z,-2.77
2018-03-18T22:11:19.032Z,-2.83
2018-03-18T22:13:48.360Z,-2.86
2018-03-18T22:16:18.347Z,-2.88
2018-03-18T22:18:48.662Z,-2.93
2018-03-18T22:21:18.086Z,-2.96
2018-03-18T22:23:48.667Z,-3.03
2018-03-18T22:26:20.880Z,-3.08
2018-03-18T22:28:50.718Z,-3.12
2018-03-18T22:31:20.066Z,-3.14
2018-03-18T22:33:49.129Z,-3.17
2018-03-18T22:36:19.038Z,-3.20
2018-03-18T22:38:49.641Z,-3.19
2018-03-18T22:41:19.184Z,-3.16
2018-03-18T22:43:51.500Z,-3.19
2018-03-18T22:46:21.528Z,-3.21
2018-03-18T22:48:50.632Z,-3.22
2018-03-18T22:51:19.985Z,-3.24
2018-03-18T22:53:49.168Z,-3.29
2018-03-18T22:56:18.729Z,-3.34
2018-03-18T22:58:48.089Z,-3.35
2018-03-18T23:01:17.392Z,-3.36
2018-03-18T23:03:46.864Z,-3.36
2018-03-18T23:06:16.457Z,-3.37
2018-03-18T23:08:49.091Z,-3.36
2018-03-18T23:11:19.011Z,-3.38
2018-03-18T23:13:48.180Z,-3.39
2018-03-18T23:16:23.235Z,-3.44
2018-03-18T23:18:55.006Z,-3.45
2018-03-18T23:21:24.763Z,-3.49
2018-03-18T23:23:53.901Z,-3.51
2018-03-18T23:26:23.968Z,-3.55
2018-03-18T23:28:53.678Z,-3.53
2018-03-18T23:31:22.723Z,-3.53
2018-03-18T23:33:51.803Z,-3.56
2018-03-18T23:39:01.203Z,-3.55
2018-03-18T23:41:30.738Z,-3.60
2018-03-18T23:43:59.931Z,-3.65
2018-03-18T23:46:29.354Z,-3.68
2018-03-18T23:48:58.841Z,-3.69
2018-03-18T23:51:27.966Z,-3.68
2018-03-18T23:53:57.771Z,-3.69
2018-03-18T23:56:26.940Z,-3.70
2018-03-18T23:58:57.196Z,-3.75
